Time;durP1;ratioP1;P1;durP2;ratioP2;P2;SDS_P1;SDS_P2;PMS_P1;PMS_P2;Temp;Humidity;BMP_temperature;BMP_pressure;BME280_temperature;BME280_humidity;BME280_pressure;Samples;Min_cycle;Max_cycle;Signal;HPM_P1;HPM_P2
2023/02/07 00:02:00;;;;;;;13.77;7.00;;;0.80;97.20;;;;;;5014294;28;20109;-71
2023/02/07 00:04:26;;;;;;;10.75;6.00;;;0.80;97.80;;;;;;5012306;28;20034;-71
2023/02/07 00:06:51;;;;;;;16.52;7.03;;;0.90;97.50;;;;;;5017566;28;22908;-71
2023/02/07 00:09:17;;;;;;;9.48;5.75;;;1.00;97.60;;;;;;5012889;28;20586;-71
2023/02/07 00:11:43;;;;;;;11.82;5.95;;;0.90;96.60;;;;;;5012413;28;20026;-71
2023/02/07 00:14:11;;;;;;;12.27;6.50;;;0.80;96.60;;;;;;5013494;28;20057;-71
2023/02/07 00:16:37;;;;;;;11.70;5.97;;;0.90;96.60;;;;;;5013063;28;20076;-71
2023/02/07 00:19:02;;;;;;;11.50;5.97;;;0.90;96.70;;;;;;5025387;28;20037;-71
2023/02/07 00:21:29;;;;;;;10.35;5.95;;;0.90;96.20;;;;;;5022176;28;20029;-71
2023/02/07 00:23:55;;;;;;;10.32;5.57;;;0.90;96.40;;;;;;5013525;28;20112;-71
2023/02/07 00:26:23;;;;;;;11.10;5.50;;;0.80;96.50;;;;;;5019180;28;20133;-71
2023/02/07 00:28:49;;;;;;;10.35;5.38;;;0.60;96.70;;;;;;5024592;28;20513;-71
2023/02/07 00:31:18;;;;;;;11.48;5.40;;;0.70;96.40;;;;;;5016100;28;20116;-71
2023/02/07 00:33:45;;;;;;;10.25;5.20;;;0.70;96.50;;;;;;5029384;28;20100;-71
2023/02/07 00:36:14;;;;;;;9.93;5.75;;;0.70;96.30;;;;;;5020506;28;20045;-71
2023/02/07 00:38:40;;;;;;;9.65;5.38;;;0.70;96.10;;;;;;5015106;28;20088;-71
2023/02/07 00:41:06;;;;;;;10.52;5.25;;;0.80;96.10;;;;;;5014373;28;20030;-71
2023/02/07 00:43:33;;;;;;;10.77;5.97;;;0.70;96.40;;;;;;5014492;28;20534;-71
2023/02/07 00:46:01;;;;;;;12.75;6.68;;;0.70;96.40;;;;;;5020399;28;20087;-71
2023/02/07 00:48:28;;;;;;;9.98;5.55;;;0.60;96.50;;;;;;5017245;28;20048;-71
2023/02/07 00:50:54;;;;;;;10.93;5.45;;;0.70;96.30;;;;;;5018241;28;20085;-71
2023/02/07 00:53:20;;;;;;;9.15;5.53;;;0.70;96.20;;;;;;5020915;28;20026;-71
2023/02/07 00:55:46;;;;;;;10.10;5.32;;;0.60;96.10;;;;;;5014825;28;20433;-71
2023/02/07 00:58:11;;;;;;;10.75;5.63;;;0.70;96.00;;;;;;5018699;28;20133;-71
2023/02/07 01:00:37;;;;;;;8.23;4.85;;;0.50;96.20;;;;;;5029231;28;20037;-71
2023/02/07 01:03:03;;;;;;;8.77;5.05;;;0.40;96.20;;;;;;5017070;28;20034;-71
2023/02/07 01:05:28;;;;;;;9.68;3.90;;;0.30;96.40;;;;;;5018747;28;20029;-71
2023/02/07 01:07:54;;;;;;;11.45;4.47;;;0.20;96.50;;;;;;5014061;28;20029;-71
2023/02/07 01:10:20;;;;;;;16.98;5.35;;;0.30;96.20;;;;;;5011839;28;20049;-71
2023/02/07 01:12:45;;;;;;;11.27;4.72;;;0.30;96.00;;;;;;5015671;28;20105;-71
2023/02/07 01:15:11;;;;;;;8.55;4.03;;;0.30;96.10;;;;;;5016704;28;20115;-71
2023/02/07 01:17:37;;;;;;;8.15;4.68;;;0.10;96.90;;;;;;5027732;28;20029;-71
2023/02/07 01:20:03;;;;;;;9.93;5.10;;;0.40;97.00;;;;;;5025913;28;20029;-71
2023/02/07 01:22:29;;;;;;;10.98;5.07;;;0.30;97.00;;;;;;5013229;28;20025;-71
2023/02/07 01:24:55;;;;;;;11.35;5.55;;;0.30;96.80;;;;;;5013122;28;20040;-71
2023/02/07 01:27:22;;;;;;;11.95;5.32;;;0.30;96.70;;;;;;5028277;28;20033;-71
2023/02/07 01:29:48;;;;;;;9.15;4.47;;;0.30;96.70;;;;;;5021413;28;20036;-71
2023/02/07 01:32:14;;;;;;;7.65;4.13;;;0.60;96.30;;;;;;5023256;28;20033;-71
2023/02/07 01:34:39;;;;;;;10.68;5.85;;;0.50;96.20;;;;;;5014617;28;20446;-71
2023/02/07 01:37:05;;;;;;;9.57;5.20;;;0.40;96.40;;;;;;5012579;28;20391;-71
2023/02/07 01:39:31;;;;;;;9.80;4.93;;;0.50;96.50;;;;;;5011257;28;20067;-71
2023/02/07 01:41:57;;;;;;;9.73;4.75;;;0.40;96.20;;;;;;5016783;28;20033;-71
2023/02/07 01:44:22;;;;;;;10.65;4.47;;;0.40;96.20;;;;;;5012643;28;20095;-71
2023/02/07 01:46:49;;;;;;;12.57;4.88;;;0.40;96.10;;;;;;5017184;28;20395;-71
2023/02/07 01:49:17;;;;;;;12.77;4.57;;;0.40;96.10;;;;;;5019245;28;20030;-71
2023/02/07 01:51:52;;;;;;;9.77;4.80;;;0.40;96.20;;;;;;5011200;28;20037;-71
2023/02/07 01:54:19;;;;;;;8.13;5.13;;;0.40;96.10;;;;;;5014098;28;20530;-71
2023/02/07 01:56:54;;;;;;;9.18;4.00;;;0.40;96.00;;;;;;5015144;28;20096;-71
2023/02/07 01:59:20;;;;;;;14.18;4.32;;;0.40;96.10;;;;;;5019726;28;20562;-71
2023/02/07 02:01:46;;;;;;;9.82;4.43;;;0.30;96.20;;;;;;5013209;28;20391;-71
2023/02/07 02:04:12;;;;;;;12.02;5.43;;;0.20;96.30;;;;;;5024556;28;20471;-71
2023/02/07 02:06:40;;;;;;;9.55;4.85;;;0.20;96.30;;;;;;5010590;28;20049;-71
2023/02/07 02:09:14;;;;;;;10.73;5.55;;;0.20;96.50;;;;;;5019020;28;20026;-71
2023/02/07 02:11:57;;;;;;;8.52;5.00;;;0.30;96.50;;;;;;5014803;28;20037;-71
2023/02/07 02:14:28;;;;;;;8.70;4.65;;;0.20;96.50;;;;;;5009259;28;20048;-71
2023/02/07 02:17:16;;;;;;;11.60;5.10;;;0.30;96.50;;;;;;5013087;28;20034;-71
2023/02/07 02:20:03;;;;;;;10.55;5.07;;;0.40;96.70;;;;;;5012041;28;20038;-71
2023/02/07 02:22:53;;;;;;;12.52;5.32;;;0.40;96.60;;;;;;5016964;28;20566;-71
2023/02/07 02:25:34;;;;;;;6.15;3.78;;;0.30;96.60;;;;;;5015809;28;20079;-71
2023/02/07 02:28:43;;;;;;;14.90;6.15;;;0.20;96.80;;;;;;5020819;28;20634;-71
2023/02/07 02:31:12;;;;;;;11.35;5.70;;;0.10;97.10;;;;;;5016765;28;20496;-71
2023/02/07 02:34:11;;;;;;;10.93;6.15;;;0.10;97.20;;;;;;5021356;28;20087;-71
2023/02/07 02:37:01;;;;;;;14.13;5.50;;;0.20;97.20;;;;;;5022917;28;20379;-71
2023/02/07 02:40:07;;;;;;;11.70;6.50;;;0.10;97.40;;;;;;5011493;28;20045;-71
2023/02/07 02:42:54;;;;;;;12.38;6.07;;;0.10;97.50;;;;;;5016119;28;20045;-71
2023/02/07 02:45:28;;;;;;;9.38;5.07;;;0.20;97.50;;;;;;5012941;28;20032;-71
2023/02/07 02:47:56;;;;;;;12.07;5.78;;;0.10;97.50;;;;;;5024992;28;20034;-71
2023/02/07 02:50:26;;;;;;;14.65;6.40;;;0.10;97.50;;;;;;5023885;28;20029;-71
2023/02/07 02:52:51;;;;;;;8.75;4.13;;;-0.10;97.50;;;;;;5016775;28;20032;-71
2023/02/07 02:55:27;;;;;;;15.68;5.88;;;-0.10;97.60;;;;;;5026817;28;20108;-71
2023/02/07 02:58:08;;;;;;;12.00;6.30;;;-0.10;97.60;;;;;;5017123;28;20057;-71
2023/02/07 03:00:33;;;;;;;11.63;6.15;;;-0.10;97.70;;;;;;5016632;28;20387;-71
2023/02/07 03:03:33;;;;;;;8.82;4.35;;;-0.10;97.70;;;;;;5020106;28;20029;-71
2023/02/07 03:06:13;;;;;;;11.45;5.72;;;-0.10;97.70;;;;;;5023295;28;20029;-71
2023/02/07 03:08:53;;;;;;;12.65;6.68;;;0.00;97.80;;;;;;5023155;28;20025;-71
2023/02/07 03:11:23;;;;;;;14.13;6.93;;;0.00;97.80;;;;;;5015898;28;20032;-71
2023/02/07 03:14:07;;;;;;;14.27;5.78;;;0.00;97.80;;;;;;5032310;28;20036;-71
2023/02/07 03:16:51;;;;;;;13.93;5.68;;;-0.10;97.90;;;;;;5035500;28;20112;-71
2023/02/07 03:19:46;;;;;;;11.65;5.97;;;-0.10;98.00;;;;;;5022716;28;20042;-71
2023/02/07 03:22:16;;;;;;;8.93;5.60;;;0.00;98.00;;;;;;5033178;28;20041;-71
2023/02/07 03:24:48;;;;;;;13.70;6.20;;;0.00;98.00;;;;;;5024868;28;20522;-71
2023/02/07 03:27:17;;;;;;;14.63;6.78;;;0.00;98.00;;;;;;5029151;28;20164;-71
2023/02/07 03:29:46;;;;;;;9.15;5.72;;;-0.20;98.20;;;;;;5026203;28;20061;-71
2023/02/07 03:32:15;;;;;;;13.63;5.82;;;-0.20;98.20;;;;;;5022835;28;20556;-71
2023/02/07 03:34:51;;;;;;;9.15;4.57;;;-0.30;98.10;;;;;;5033849;28;20040;-71
2023/02/07 03:37:28;;;;;;;8.32;4.95;;;-0.30;98.10;;;;;;5023705;28;20038;-71
2023/02/07 03:39:54;;;;;;;10.52;5.75;;;-0.30;98.20;;;;;;5026791;28;20045;-71
2023/02/07 03:42:30;;;;;;;9.20;5.63;;;-0.40;98.20;;;;;;5014910;28;20120;-71
2023/02/07 03:44:57;;;;;;;10.10;5.22;;;-0.40;98.30;;;;;;5023673;28;20040;-71
2023/02/07 03:47:26;;;;;;;13.35;6.28;;;-0.40;98.50;;;;;;5025103;28;20036;-71
2023/02/07 03:49:51;;;;;;;11.38;5.97;;;-0.30;98.50;;;;;;5033232;28;20028;-71
2023/02/07 03:52:17;;;;;;;11.00;5.65;;;-0.20;98.50;;;;;;5020493;28;20475;-71
2023/02/07 03:54:42;;;;;;;11.80;5.78;;;-0.20;98.40;;;;;;5014488;28;20034;-71
2023/02/07 03:57:08;;;;;;;12.23;5.45;;;-0.20;98.40;;;;;;5018203;28;20399;-71
2023/02/07 03:59:34;;;;;;;10.35;5.68;;;-0.20;98.60;;;;;;5027448;28;20434;-71
2023/02/07 04:02:00;;;;;;;12.35;5.60;;;-0.40;98.40;;;;;;5017584;28;20018;-71
2023/02/07 04:04:26;;;;;;;11.57;6.10;;;-0.30;98.50;;;;;;5022556;28;20026;-71
2023/02/07 04:06:52;;;;;;;10.00;5.47;;;-0.30;98.40;;;;;;5020046;28;20506;-71
2023/02/07 04:09:18;;;;;;;13.18;5.90;;;-0.30;98.30;;;;;;5020847;28;20036;-71
2023/02/07 04:11:47;;;;;;;15.02;6.05;;;-0.20;98.40;;;;;;5020430;28;20109;-71
2023/02/07 04:14:12;;;;;;;15.80;6.20;;;-0.30;98.40;;;;;;5017198;28;20049;-70
2023/02/07 04:16:38;;;;;;;10.65;5.30;;;-0.20;98.30;;;;;;5013779;28;20041;-71
2023/02/07 04:19:03;;;;;;;13.38;5.93;;;-0.20;98.30;;;;;;5011667;28;20064;-71
2023/02/07 04:21:29;;;;;;;12.85;5.97;;;0.00;98.20;;;;;;5009649;28;20105;-71
2023/02/07 04:23:55;;;;;;;10.50;5.65;;;0.00;97.90;;;;;;5025923;28;20109;-71
2023/02/07 04:26:20;;;;;;;11.07;6.45;;;0.00;97.60;;;;;;5011639;28;20105;-71
2023/02/07 04:28:46;;;;;;;12.60;5.13;;;-0.10;97.90;;;;;;5012571;28;20109;-71
2023/02/07 04:31:12;;;;;;;8.25;4.30;;;-0.30;98.00;;;;;;5017255;28;20070;-71
2023/02/07 04:33:37;;;;;;;12.00;5.70;;;-0.40;98.20;;;;;;5020257;28;20043;-71
2023/02/07 04:36:04;;;;;;;11.85;5.38;;;-0.50;98.40;;;;;;5019767;28;20632;-71
2023/02/07 04:38:30;;;;;;;9.82;4.75;;;-0.50;98.40;;;;;;5020159;28;20026;-73
2023/02/07 04:41:03;;;;;;;11.55;5.10;;;-0.40;98.30;;;;;;5014408;28;20264;-74
2023/02/07 04:43:29;;;;;;;11.10;5.43;;;-0.40;97.90;;;;;;5015099;28;20075;-73
2023/02/07 04:45:55;;;;;;;10.65;5.20;;;-0.40;98.10;;;;;;5011186;28;20049;-74
2023/02/07 04:48:21;;;;;;;10.68;5.35;;;-0.50;98.10;;;;;;5020357;28;20038;-74
2023/02/07 04:50:47;;;;;;;10.00;4.97;;;-0.60;98.30;;;;;;5019530;28;20028;-73
2023/02/07 04:53:13;;;;;;;15.75;5.68;;;-0.60;98.20;;;;;;5013408;28;20034;-73
2023/02/07 04:55:39;;;;;;;10.00;4.65;;;-0.70;98.50;;;;;;5016137;28;20041;-73
2023/02/07 04:58:05;;;;;;;11.93;5.68;;;-0.60;98.50;;;;;;5020785;28;20061;-73
2023/02/07 05:00:31;;;;;;;10.02;5.30;;;-0.60;98.30;;;;;;5026767;28;20033;-75
2023/02/07 05:02:57;;;;;;;11.35;4.88;;;-0.60;98.40;;;;;;5019980;28;20105;-74
2023/02/07 05:05:22;;;;;;;9.57;4.93;;;-0.70;98.50;;;;;;5021943;28;20117;-73
2023/02/07 05:07:48;;;;;;;9.93;5.50;;;-0.70;98.60;;;;;;5010548;28;20124;-74
2023/02/07 05:10:14;;;;;;;11.63;4.63;;;-0.70;98.60;;;;;;5011576;28;20026;-73
2023/02/07 05:12:39;;;;;;;9.60;4.65;;;-0.70;98.70;;;;;;5019328;28;20105;-73
2023/02/07 05:15:05;;;;;;;12.30;4.50;;;-0.60;98.70;;;;;;5010107;28;20030;-74
2023/02/07 05:17:33;;;;;;;9.60;6.00;;;-0.70;98.70;;;;;;5010813;28;20026;-74
2023/02/07 05:20:03;;;;;;;9.65;4.85;;;-0.70;98.90;;;;;;5015117;28;20168;-73
2023/02/07 05:22:28;;;;;;;9.55;5.30;;;-0.60;98.70;;;;;;5021050;28;20483;-73
2023/02/07 05:24:54;;;;;;;9.02;5.63;;;-0.60;98.80;;;;;;5020185;28;20033;-73
2023/02/07 05:27:20;;;;;;;8.68;4.70;;;-0.30;98.50;;;;;;5025139;28;20053;-74
2023/02/07 05:29:45;;;;;;;10.63;5.43;;;-0.50;98.60;;;;;;5009529;28;20030;-73
2023/02/07 05:34:57;;;;;;;9.40;4.70;;;-0.60;98.90;;;;;;5011319;28;20045;-74
2023/02/07 05:37:23;;;;;;;11.88;5.82;;;-0.80;99.10;;;;;;5018781;28;20037;-74
2023/02/07 05:39:49;;;;;;;14.23;6.00;;;-0.90;99.30;;;;;;5015293;28;20091;-74
2023/02/07 05:42:14;;;;;;;9.45;5.15;;;-0.90;99.40;;;;;;5010926;28;20471;-74
2023/02/07 05:44:40;;;;;;;12.35;6.22;;;-1.00;99.70;;;;;;5020491;28;20129;-74
2023/02/07 05:47:06;;;;;;;10.52;5.28;;;-1.10;99.90;;;;;;5017997;28;20034;-73
2023/02/07 05:49:31;;;;;;;13.90;6.00;;;-1.10;99.90;;;;;;5017163;28;20053;-74
2023/02/07 05:51:57;;;;;;;10.88;5.90;;;-1.00;99.90;;;;;;5008292;28;20364;-73
2023/02/07 05:54:23;;;;;;;8.07;4.78;;;-1.00;99.90;;;;;;5015283;28;20037;-74
2023/02/07 05:56:48;;;;;;;13.13;6.72;;;-1.00;99.90;;;;;;5016571;28;20061;-73
2023/02/07 05:59:14;;;;;;;11.90;5.55;;;-0.90;99.90;;;;;;5015888;28;20038;-74
2023/02/07 06:01:40;;;;;;;11.95;5.22;;;-0.90;99.90;;;;;;5015729;28;20524;-73
2023/02/07 06:04:06;;;;;;;12.50;5.90;;;-1.00;99.90;;;;;;5015176;28;20037;-73
2023/02/07 06:06:31;;;;;;;12.48;5.90;;;-1.00;99.90;;;;;;5012171;28;20029;-73
2023/02/07 06:08:57;;;;;;;11.23;5.78;;;-1.00;99.90;;;;;;5020615;28;20071;-74
2023/02/07 06:11:22;;;;;;;9.57;5.65;;;-0.90;99.90;;;;;;5013218;28;20044;-73
2023/02/07 06:13:48;;;;;;;10.95;5.57;;;-1.10;99.90;;;;;;5018317;28;20391;-73
2023/02/07 06:16:14;;;;;;;9.93;5.72;;;-1.00;99.90;;;;;;5016710;28;20038;-74
2023/02/07 06:18:39;;;;;;;10.70;4.80;;;-1.20;99.90;;;;;;5015826;28;20036;-73
2023/02/07 06:21:05;;;;;;;12.02;5.22;;;-1.20;99.90;;;;;;5022286;28;20655;-73
2023/02/07 06:23:31;;;;;;;10.85;6.07;;;-1.20;99.90;;;;;;5016293;28;20120;-75
2023/02/07 06:25:56;;;;;;;11.43;5.55;;;-1.30;99.90;;;;;;5023076;28;20033;-75
2023/02/07 06:28:22;;;;;;;10.73;5.80;;;-1.30;99.90;;;;;;5013139;28;20029;-75
2023/02/07 06:30:50;;;;;;;10.23;5.32;;;-1.30;99.90;;;;;;5015191;28;20494;-74
2023/02/07 06:33:16;;;;;;;9.90;5.40;;;-1.30;99.90;;;;;;5014217;28;20037;-75
2023/02/07 06:35:46;;;;;;;12.02;6.25;;;-1.30;99.90;;;;;;5012586;28;20030;-74
2023/02/07 06:38:15;;;;;;;10.45;5.78;;;-1.30;99.90;;;;;;5012378;28;20176;-73
2023/02/07 06:40:42;;;;;;;8.60;4.38;;;-1.30;99.90;;;;;;5013929;28;20038;-74
2023/02/07 06:43:08;;;;;;;10.57;5.75;;;-0.60;99.90;;;;;;5009217;28;20030;-73
2023/02/07 06:45:34;;;;;;;14.25;6.70;;;-1.00;99.90;;;;;;5014677;28;20052;-73
2023/02/07 06:47:59;;;;;;;10.60;5.60;;;-1.00;99.90;;;;;;5010774;28;20475;-73
2023/02/07 06:50:25;;;;;;;10.13;5.50;;;-1.10;99.90;;;;;;5012210;28;20037;-74
2023/02/07 06:52:51;;;;;;;12.83;6.17;;;-1.20;99.90;;;;;;5013670;28;20029;-73
2023/02/07 06:55:16;;;;;;;14.30;6.55;;;-1.20;99.90;;;;;;5020973;28;20059;-74
2023/02/07 06:57:42;;;;;;;12.27;5.55;;;-1.20;99.90;;;;;;5020662;28;20504;-74
2023/02/07 07:00:08;;;;;;;9.07;4.80;;;-1.30;99.90;;;;;;5016842;28;20045;-74
2023/02/07 07:02:34;;;;;;;10.65;6.38;;;-1.30;99.90;;;;;;5028191;28;20098;-73
2023/02/07 07:04:59;;;;;;;12.07;5.30;;;-1.30;99.90;;;;;;5027520;28;20112;-73
2023/02/07 07:07:25;;;;;;;10.88;6.03;;;-1.20;99.90;;;;;;5029487;28;20514;-73
2023/02/07 07:09:51;;;;;;;13.43;6.10;;;-1.00;99.90;;;;;;5013603;28;20025;-75
2023/02/07 07:12:16;;;;;;;10.75;5.72;;;-1.00;99.90;;;;;;5027092;28;20060;-74
2023/02/07 07:14:42;;;;;;;12.07;5.30;;;-1.10;99.90;;;;;;5029948;28;20033;-74
2023/02/07 07:17:08;;;;;;;11.40;5.43;;;-1.20;99.90;;;;;;5029780;28;20526;-74
2023/02/07 07:19:33;;;;;;;7.70;4.38;;;-1.20;99.90;;;;;;5027026;28;20088;-72
2023/02/07 07:21:59;;;;;;;8.90;4.80;;;-0.90;99.90;;;;;;5026276;28;20029;-74
2023/02/07 07:24:26;;;;;;;9.82;5.65;;;-0.70;99.90;;;;;;5027421;28;20087;-73
2023/02/07 07:26:52;;;;;;;11.48;5.45;;;-0.80;99.90;;;;;;5029609;28;20061;-73
2023/02/07 07:29:18;;;;;;;16.05;6.97;;;-0.80;99.90;;;;;;5026334;28;20065;-75
2023/02/07 07:31:45;;;;;;;16.65;8.43;;;-0.70;99.90;;;;;;5027819;28;20476;-74
2023/02/07 07:34:11;;;;;;;12.70;6.35;;;-0.70;99.90;;;;;;5022629;28;20022;-73
2023/02/07 07:36:36;;;;;;;12.40;5.80;;;-0.70;99.90;;;;;;5028543;28;20147;-73
2023/02/07 07:39:02;;;;;;;11.93;5.30;;;-0.90;99.90;;;;;;5019194;28;20045;-74
2023/02/07 07:41:28;;;;;;;13.70;6.53;;;-1.00;99.90;;;;;;5031252;28;20287;-74
2023/02/07 07:43:54;;;;;;;9.70;5.30;;;-1.00;99.90;;;;;;5025863;28;20057;-73
2023/02/07 07:46:21;;;;;;;14.20;5.75;;;-0.90;99.90;;;;;;5021069;28;20567;-74
2023/02/07 07:48:46;;;;;;;11.18;6.30;;;-1.00;99.90;;;;;;5022643;28;20141;-73
2023/02/07 07:51:12;;;;;;;9.13;5.63;;;-0.80;99.90;;;;;;5023068;28;20052;-73
2023/02/07 07:53:38;;;;;;;7.32;4.80;;;-0.80;99.90;;;;;;5024558;28;20025;-73
2023/02/07 07:56:03;;;;;;;39.08;7.82;;;-0.80;99.90;;;;;;5031365;28;20040;-73
2023/02/07 07:58:30;;;;;;;15.20;5.32;;;-0.70;99.90;;;;;;5029422;28;20042;-74
2023/02/07 08:00:56;;;;;;;11.13;5.20;;;-0.80;99.90;;;;;;5032013;28;20096;-74
2023/02/07 08:03:22;;;;;;;10.63;5.50;;;-0.70;99.90;;;;;;5030782;28;20471;-73
2023/02/07 08:05:48;;;;;;;11.98;5.15;;;-0.40;99.90;;;;;;5030773;28;20036;-73
2023/02/07 08:08:14;;;;;;;9.57;5.22;;;-0.20;99.90;;;;;;5031186;28;20033;-73
2023/02/07 08:10:40;;;;;;;10.35;4.70;;;-0.10;99.90;;;;;;5029302;28;20037;-72
2023/02/07 08:13:06;;;;;;;12.90;5.68;;;0.00;99.90;;;;;;5029482;28;20025;-72
2023/02/07 08:15:32;;;;;;;10.85;5.50;;;0.00;99.90;;;;;;5021010;28;20094;-76
2023/02/07 08:17:57;;;;;;;13.82;5.70;;;-0.20;99.90;;;;;;5022096;28;20077;-75
2023/02/07 08:20:23;;;;;;;11.57;5.63;;;0.20;99.90;;;;;;5019263;28;20533;-74
2023/02/07 08:22:49;;;;;;;12.15;6.07;;;0.10;99.90;;;;;;5020426;28;20527;-75
2023/02/07 08:25:15;;;;;;;12.65;6.53;;;0.00;99.90;;;;;;5020347;28;20242;-75
2023/02/07 08:27:41;;;;;;;15.35;6.97;;;-0.10;99.90;;;;;;5022135;28;20399;-75
2023/02/07 08:30:09;;;;;;;12.52;5.93;;;0.20;99.90;;;;;;5022145;28;20048;-73
2023/02/07 08:32:34;;;;;;;12.27;6.00;;;0.10;99.90;;;;;;5022301;28;20386;-73
2023/02/07 08:35:00;;;;;;;13.18;7.50;;;0.10;99.90;;;;;;5024856;28;20026;-75
2023/02/07 08:37:26;;;;;;;43.40;9.50;;;0.00;99.90;;;;;;5024295;28;20032;-76
2023/02/07 08:39:51;;;;;;;10.95;6.35;;;-0.10;99.90;;;;;;5019832;28;20052;-74
2023/02/07 08:42:20;;;;;;;14.05;6.85;;;-0.10;99.90;;;;;;5021806;28;20021;-74
2023/02/07 08:44:47;;;;;;;13.27;5.78;;;0.00;99.90;;;;;;5021994;28;20033;-75
2023/02/07 08:47:13;;;;;;;11.30;6.72;;;0.20;99.90;;;;;;5020763;28;20025;-76
2023/02/07 08:49:39;;;;;;;12.82;5.80;;;0.30;99.90;;;;;;5021514;28;20120;-75
2023/02/07 08:52:06;;;;;;;10.60;5.68;;;0.30;99.90;;;;;;5021735;28;20198;-74
2023/02/07 08:54:32;;;;;;;8.57;5.05;;;0.40;99.90;;;;;;5024222;28;20032;-74
2023/02/07 08:56:57;;;;;;;7.93;4.00;;;0.30;99.90;;;;;;5019289;28;20041;-75
2023/02/07 08:59:23;;;;;;;9.48;4.93;;;0.40;99.90;;;;;;5024355;28;20125;-76
2023/02/07 09:01:49;;;;;;;11.30;4.38;;;0.40;99.90;;;;;;5023263;28;20037;-75
2023/02/07 09:04:15;;;;;;;7.65;4.38;;;0.50;99.90;;;;;;5017892;28;20032;-74
2023/02/07 09:06:41;;;;;;;8.00;4.57;;;0.60;99.90;;;;;;5025446;28;20037;-73
2023/02/07 09:09:07;;;;;;;9.85;4.60;;;0.40;99.90;;;;;;5024159;28;20034;-75
2023/02/07 09:11:32;;;;;;;12.60;4.93;;;0.40;99.90;;;;;;5020939;28;20033;-73
2023/02/07 09:13:58;;;;;;;6.88;4.13;;;0.70;99.90;;;;;;5021021;28;20018;-74
2023/02/07 09:16:24;;;;;;;11.77;4.32;;;0.60;99.90;;;;;;5020558;28;20030;-73
2023/02/07 09:18:50;;;;;;;11.25;4.50;;;0.70;99.40;;;;;;5016081;28;20607;-76
2023/02/07 09:21:17;;;;;;;8.45;4.28;;;0.80;99.90;;;;;;5018079;28;20076;-74
2023/02/07 09:23:43;;;;;;;8.60;4.53;;;0.60;99.40;;;;;;5018812;28;20033;-73
2023/02/07 09:26:16;;;;;;;11.32;4.47;;;0.80;99.10;;;;;;5022078;28;20079;-74
2023/02/07 09:28:41;;;;;;;7.90;4.35;;;0.80;99.30;;;;;;5020601;28;20037;-74
2023/02/07 09:31:12;;;;;;;10.43;5.15;;;1.10;99.10;;;;;;5018212;28;20040;-74
2023/02/07 09:33:38;;;;;;;8.32;4.75;;;1.00;99.30;;;;;;5021262;28;20476;-72
2023/02/07 09:36:05;;;;;;;10.35;4.80;;;0.90;98.30;;;;;;5018486;28;20072;-74
2023/02/07 09:38:30;;;;;;;7.13;3.78;;;0.90;98.60;;;;;;5022494;28;20452;-73
2023/02/07 09:40:58;;;;;;;10.90;5.60;;;0.90;98.30;;;;;;5021930;28;20120;-73
2023/02/07 09:43:38;;;;;;;8.10;5.15;;;1.10;98.10;;;;;;5024325;28;20057;-73
2023/02/07 09:46:17;;;;;;;9.90;4.75;;;1.30;97.80;;;;;;5026786;28;20037;-73
2023/02/07 09:49:10;;;;;;;8.27;4.20;;;1.40;97.50;;;;;;5010685;28;20128;-73
2023/02/07 09:51:38;;;;;;;10.65;4.75;;;1.30;96.80;;;;;;5021907;28;20033;-74
2023/02/07 09:54:15;;;;;;;11.15;4.03;;;1.40;96.90;;;;;;5030744;28;20022;-74
2023/02/07 09:56:41;;;;;;;7.95;4.25;;;1.50;96.90;;;;;;5030565;28;20099;-75
2023/02/07 09:59:37;;;;;;;6.65;3.95;;;1.60;96.40;;;;;;5028571;28;20034;-74
2023/02/07 10:02:12;;;;;;;10.05;5.25;;;1.70;96.40;;;;;;5031564;28;20064;-74
2023/02/07 10:04:42;;;;;;;14.35;6.03;;;2.50;96.70;;;;;;5029585;28;20055;-74
2023/02/07 10:07:12;;;;;;;11.07;5.28;;;2.70;96.60;;;;;;5027932;28;20025;-75
2023/02/07 10:09:41;;;;;;;12.75;4.68;;;2.90;96.30;;;;;;5027391;28;20017;-74
2023/02/07 10:12:28;;;;;;;10.32;4.28;;;2.90;95.10;;;;;;5015555;28;20042;-74
2023/02/07 10:15:16;;;;;;;14.43;4.70;;;2.70;94.90;;;;;;5022354;28;20025;-75
2023/02/07 10:18:06;;;;;;;8.52;4.05;;;2.50;95.20;;;;;;5028910;28;20025;-75
2023/02/07 10:20:38;;;;;;;8.98;4.28;;;2.40;94.90;;;;;;5027756;28;20033;-74
2023/02/07 10:23:28;;;;;;;5.53;3.33;;;2.30;94.80;;;;;;5029840;28;20065;-74
2023/02/07 10:25:57;;;;;;;8.88;4.07;;;2.60;95.40;;;;;;5028538;28;20026;-74
2023/02/07 10:28:47;;;;;;;10.85;5.78;;;2.60;94.90;;;;;;5030045;28;20037;-74
2023/02/07 10:31:16;;;;;;;11.82;4.90;;;2.50;96.30;;;;;;5014620;28;20033;-74
2023/02/07 10:33:52;;;;;;;8.45;5.00;;;2.80;96.40;;;;;;5022873;28;20032;-74
2023/02/07 10:36:18;;;;;;;16.85;4.72;;;2.80;95.80;;;;;;5021027;28;20044;-74
2023/02/07 10:38:55;;;;;;;21.58;6.22;;;2.80;95.10;;;;;;5025449;28;20423;-75
2023/02/07 10:41:29;;;;;;;42.20;7.45;;;2.80;95.40;;;;;;5030537;28;20036;-75
2023/02/07 10:43:55;;;;;;;65.15;8.80;;;2.90;95.30;;;;;;5025726;28;20436;-74
2023/02/07 10:46:22;;;;;;;10.95;4.68;;;3.00;95.50;;;;;;5019441;28;20049;-74
2023/02/07 10:48:48;;;;;;;9.95;5.47;;;2.80;95.40;;;;;;5021818;28;20525;-74
2023/02/07 10:51:40;;;;;;;11.98;4.68;;;2.80;95.20;;;;;;5017125;28;20033;-74
2023/02/07 10:54:09;;;;;;;8.93;5.38;;;2.90;95.60;;;;;;5020519;28;20498;-70
2023/02/07 10:56:59;;;;;;;10.02;4.50;;;2.90;95.10;;;;;;5020188;28;20045;-72
2023/02/07 10:59:49;;;;;;;8.27;4.32;;;2.90;94.90;;;;;;5020400;28;20061;-72
2023/02/07 11:02:37;;;;;;;10.23;5.05;;;3.00;95.20;;;;;;5017680;28;20112;-73
2023/02/07 11:05:05;;;;;;;9.63;4.47;;;3.40;95.70;;;;;;5020658;28;20025;-73
2023/02/07 11:07:31;;;;;;;9.57;4.72;;;3.40;94.80;;;;;;5021445;28;20031;-72
2023/02/07 11:10:19;;;;;;;10.77;4.95;;;3.20;94.50;;;;;;5019342;28;20080;-72
2023/02/07 11:12:47;;;;;;;10.85;4.68;;;3.00;94.60;;;;;;5020372;28;20033;-73
2023/02/07 11:15:19;;;;;;;8.70;5.07;;;3.20;94.70;;;;;;5021888;28;20253;-73
2023/02/07 11:17:49;;;;;;;12.07;5.30;;;3.60;94.60;;;;;;5019341;28;20034;-73
2023/02/07 11:20:29;;;;;;;11.52;4.95;;;3.80;94.80;;;;;;5017622;28;20041;-74
2023/02/07 11:22:56;;;;;;;10.77;5.05;;;3.90;94.30;;;;;;5009966;28;20065;-75
2023/02/07 11:25:41;;;;;;;9.88;4.68;;;3.80;94.60;;;;;;5015092;28;20044;-75
2023/02/07 11:28:19;;;;;;;10.27;4.90;;;3.70;94.70;;;;;;5014408;28;20617;-72
2023/02/07 11:30:46;;;;;;;10.55;4.40;;;3.90;93.80;;;;;;5020278;28;20039;-73
2023/02/07 11:33:22;;;;;;;9.85;5.25;;;4.00;93.90;;;;;;5017142;28;20026;-75
2023/02/07 11:36:26;;;;;;;10.15;4.88;;;4.10;93.60;;;;;;5018139;28;20036;-72
2023/02/07 11:38:57;;;;;;;8.25;5.15;;;4.30;93.20;;;;;;5017827;28;20053;-75
2023/02/07 11:41:29;;;;;;;8.40;4.28;;;4.50;93.90;;;;;;5016319;28;20624;-74
2023/02/07 11:44:16;;;;;;;9.93;4.70;;;4.70;93.80;;;;;;5021816;28;20071;-74
2023/02/07 11:46:45;;;;;;;12.90;4.65;;;4.80;93.40;;;;;;5019662;28;20034;-74
2023/02/07 11:49:28;;;;;;;9.73;5.40;;;4.90;93.50;;;;;;5017280;28;20104;-75
2023/02/07 11:51:57;;;;;;;10.52;6.93;;;5.00;92.80;;;;;;5019591;28;20439;-73
2023/02/07 11:54:24;;;;;;;11.82;6.03;;;5.00;93.00;;;;;;5020174;28;20037;-73
2023/02/07 11:56:54;;;;;;;9.20;5.70;;;5.10;93.00;;;;;;5017636;28;20042;-70
2023/02/07 11:59:26;;;;;;;9.07;5.78;;;5.20;92.70;;;;;;5021438;28;20044;-72
2023/02/07 12:01:56;;;;;;;11.98;5.78;;;5.30;92.40;;;;;;5020993;28;20030;-74
2023/02/07 12:04:34;;;;;;;11.85;4.75;;;5.40;91.80;;;;;;5017152;28;20040;-73
2023/02/07 12:07:25;;;;;;;10.20;4.38;;;5.50;92.50;;;;;;5020484;28;20029;-73
2023/02/07 12:09:58;;;;;;;9.98;4.45;;;5.30;91.70;;;;;;5025437;28;20044;-73
2023/02/07 12:12:40;;;;;;;7.25;4.38;;;5.20;91.50;;;;;;5023032;28;20445;-73
2023/02/07 12:15:13;;;;;;;9.18;4.10;;;5.10;91.80;;;;;;5022427;28;20494;-73
2023/02/07 12:17:44;;;;;;;6.97;4.03;;;5.20;91.80;;;;;;5019801;28;20029;-73
2023/02/07 12:20:22;;;;;;;8.05;4.80;;;5.30;91.90;;;;;;5021480;28;20092;-73
2023/02/07 12:23:03;;;;;;;8.38;4.65;;;5.50;91.60;;;;;;5022299;28;20047;-73
2023/02/07 12:25:37;;;;;;;10.25;4.20;;;5.40;91.50;;;;;;5022319;28;20022;-73
2023/02/07 12:28:30;;;;;;;8.13;3.97;;;5.80;91.90;;;;;;5023281;28;20026;-73
2023/02/07 12:31:01;;;;;;;8.07;3.88;;;5.70;90.90;;;;;;4999804;28;20045;-73
2023/02/07 12:33:41;;;;;;;17.52;4.30;;;5.60;91.10;;;;;;5021456;28;20029;-73
2023/02/07 12:36:22;;;;;;;38.15;7.35;;;5.60;91.10;;;;;;5021575;28;20104;-73
2023/02/07 12:39:13;;;;;;;12.43;5.82;;;5.60;91.40;;;;;;5022075;28;20029;-73
2023/02/07 12:41:47;;;;;;;7.43;5.13;;;5.70;91.00;;;;;;5022773;28;20056;-73
2023/02/07 12:44:18;;;;;;;12.98;5.45;;;5.70;91.10;;;;;;5020662;28;20042;-73
2023/02/07 12:46:58;;;;;;;9.75;5.45;;;6.00;91.50;;;;;;5021408;28;20042;-73
2023/02/07 12:49:53;;;;;;;9.75;5.03;;;6.10;91.70;;;;;;5020583;28;20041;-73
2023/02/07 12:52:38;;;;;;;11.60;5.40;;;6.20;91.10;;;;;;5018742;28;20053;-73
2023/02/07 12:55:12;;;;;;;10.45;6.15;;;6.20;91.40;;;;;;5021285;28;20492;-73
2023/02/07 12:58:16;;;;;;;9.75;5.25;;;6.10;90.70;;;;;;5022232;28;20117;-72
2023/02/07 13:01:21;;;;;;;10.10;5.15;;;5.90;91.30;;;;;;5023975;28;20073;-73
2023/02/07 13:04:01;;;;;;;13.15;4.72;;;6.10;91.50;;;;;;4999425;28;20521;-73
2023/02/07 13:06:46;;;;;;;10.20;6.28;;;6.30;91.30;;;;;;5019540;28;20029;-73